
Distance (Route):
Temperature : 13.4°C
Humidity : 76.3%
Pressure : 0hPa| Receiver | Date | Latitude | Longitude | Direction | Speed | Altitude | Climb | Temperature | Humidity | Pressure | Voltage | Killtimer | Uptime | BKT | XDATA |
|---|---|---|---|---|---|---|---|---|---|---|---|---|---|---|---|
| LZ4TU-5 | 2026-09-02 07:09:32 | 42.68943 | 24.16356 | 60° | 9km/h | 2078m | -17.5m/s | 13.4°C | 76.3% | 0hPa | 0V | 08:12:00 | 00:00:00 | 00:00:00 | |
| LZ4TU-5 | 2026-09-02 07:09:23 | 42.68938 | 24.16330 | 96° | 9km/h | 2228m | -17.0m/s | 12.3°C | 73.4% | 0hPa | 0V | 08:12:00 | 00:00:00 | 00:00:00 | |
| LZ4TU-5 | 2026-09-02 07:09:19 | 42.68936 | 24.16320 | 77° | 9km/h | 2295m | -17.5m/s | 12.0°C | 64.5% | 0hPa | 0V | 08:13:00 | 00:00:00 | 00:00:00 | |
| LZ4TU-5 | 2026-09-02 07:09:14 | 42.68936 | 24.16303 | 92° | 13km/h | 2380m | -16.9m/s | 11.3°C | 66.6% | 0hPa | 0V | 08:13:00 | 00:00:00 | 00:00:00 | |
| LZ4TU-5 | 2026-09-02 07:09:10 | 42.68935 | 24.16289 | 87° | 13km/h | 2447m | -16.8m/s | 10.7°C | 75.9% | 0hPa | 0V | 08:13:00 | 00:00:00 | 00:00:00 | |
| LZ4TU-5 | 2026-09-02 07:09:05 | 42.68936 | 24.16269 | 101° | 13km/h | 2529m | -16.8m/s | 10.2°C | 72.5% | 0hPa | 0V | 08:13:00 | 00:00:00 | 00:00:00 | |
| LZ4TU-5 | 2026-09-02 07:09:00 | 42.68937 | 24.16249 | 95° | 13km/h | 2611m | -16.8m/s | 9.4°C | 72.1% | 0hPa | 0V | 08:13:00 | 00:00:00 | 00:00:00 | |
| LZ4TU-5 | 2026-09-02 07:08:55 | 42.68940 | 24.16225 | 107° | 15km/h | 2694m | -17.2m/s | 8.8°C | 75.4% | 0hPa | 0V | 08:13:00 | 00:00:00 | 00:00:00 | |
| LZ4TU-5 | 2026-09-02 07:08:50 | 42.68941 | 24.16207 | 110° | 13km/h | 2760m | -16.1m/s | 8.5°C | 72.4% | 0hPa | 0V | 08:13:00 | 00:00:00 | 00:00:00 | |
| LZ4TU-5 | 2026-09-02 07:08:45 | 42.68945 | 24.16186 | 104° | 16km/h | 2834m | -15.3m/s | 8.4°C | 61.0% | 0hPa | 0V | 08:13:00 | 00:00:00 | 00:00:00 | |
| LZ4TU-5 | 2026-09-02 07:08:41 | 42.68951 | 24.16166 | 106° | 15km/h | 2896m | -16.4m/s | 8.2°C | 45.2% | 0hPa | 0V | 08:13:00 | 00:00:00 | 00:00:00 | |
| LZ4TU-5 | 2026-09-02 07:08:37 | 42.68962 | 24.16142 | 135° | 16km/h | 2976m | -16.6m/s | 8.0°C | 33.8% | 0hPa | 0V | 08:13:00 | 00:00:00 | 00:00:00 | |
| LZ4TU-5 | 2026-09-02 07:08:33 | 42.68975 | 24.16123 | 143° | 22km/h | 3042m | -15.2m/s | 7.5°C | 37.7% | 0hPa | 0V | 08:13:00 | 00:00:00 | 00:00:00 | |
| LZ4TU-5 | 2026-09-02 07:08:28 | 42.68994 | 24.16102 | 140° | 26km/h | 3103m | -15.5m/s | 7.1°C | 42.1% | 0hPa | 0V | 08:13:00 | 00:00:00 | 00:00:00 | |
| LZ4TU-5 | 2026-09-02 07:08:24 | 42.69022 | 24.16075 | 144° | 31km/h | 3183m | -16.1m/s | 6.5°C | 49.0% | 0hPa | 0V | 08:13:00 | 00:00:00 | 00:00:00 | |
| LZ4TU-5 | 2026-09-02 07:08:20 | 42.69046 | 24.16050 | 140° | 31km/h | 3246m | -16.1m/s | 5.8°C | 61.5% | 0hPa | 0V | 08:13:00 | 00:00:00 | 00:00:00 | |
| LZ4TU-5 | 2026-09-02 07:08:16 | 42.69066 | 24.16022 | 129° | 27km/h | 3310m | -16.3m/s | 5.2°C | 71.4% | 0hPa | 0V | 08:13:00 | 00:00:00 | 00:00:00 | |
| LZ4TU-5 | 2026-09-02 07:08:11 | 42.69089 | 24.15982 | 132° | 29km/h | 3391m | -16.0m/s | 4.4°C | 80.0% | 0hPa | 0V | 08:13:00 | 00:00:00 | 00:00:00 | |
| LZ4TU-5 | 2026-09-02 07:08:05 | 42.69110 | 24.15941 | 126° | 29km/h | 3474m | -16.9m/s | 3.6°C | 86.9% | 0hPa | 0V | 08:13:00 | 00:00:00 | 00:00:00 | |
| LZ4TU-5 | 2026-09-02 07:07:57 | 42.69144 | 24.15868 | 118° | 31km/h | 3606m | -16.1m/s | 2.3°C | 95.2% | 0hPa | 0V | 08:13:00 | 00:00:00 | 00:00:00 | |
| LZ4TU-5 | 2026-09-02 07:07:53 | 42.69166 | 24.15818 | 124° | 37km/h | 3687m | -15.9m/s | 1.8°C | 90.7% | 0hPa | 0V | 08:13:00 | 00:00:00 | 00:00:00 | |
| LZ4TU-5 | 2026-09-02 07:07:48 | 42.69184 | 24.15773 | 121° | 40km/h | 3751m | -16.2m/s | 1.4°C | 83.6% | 0hPa | 0V | 08:13:00 | 00:00:00 | 00:00:00 | |
| LZ4TU-5 | 2026-09-02 07:07:43 | 42.69206 | 24.15713 | 116° | 40km/h | 3833m | -16.9m/s | 0.6°C | 85.4% | 0hPa | 0V | 08:13:00 | 00:00:00 | 00:00:00 | |
| LZ4TU-5 | 2026-09-02 07:07:39 | 42.69224 | 24.15663 | 121° | 40km/h | 3900m | -16.1m/s | 0.1°C | 81.8% | 0hPa | 0V | 00:00:00 | 00:00:00 | 00:00:00 | |
| LZ4TU-5 | 2026-09-02 07:07:35 | 42.69240 | 24.15614 | 114° | 38km/h | 3964m | -17.2m/s | -0.2°C | 73.3% | 0hPa | 0V | 00:00:00 | 00:00:00 | 00:00:00 | |
| LZ4TU-5 | 2026-09-02 07:07:31 | 42.69256 | 24.15551 | 103° | 38km/h | 4047m | -16.6m/s | -0.4°C | 58.0% | 0hPa | 0V | 00:00:00 | 00:00:00 | 00:00:00 | |
| LZ4TU-5 | 2026-09-02 07:07:26 | 42.69269 | 24.15485 | 103° | 40km/h | 4129m | -16.7m/s | -0.7°C | 43.9% | 0hPa | 0V | 00:00:00 | 00:00:00 | 00:00:00 | |
| LZ4TU-5 | 2026-09-02 07:07:21 | 42.69284 | 24.15413 | 110° | 47km/h | 4212m | -16.9m/s | -0.5°C | 33.0% | 0hPa | 0V | 00:00:00 | 00:00:00 | 00:00:00 | |
| LZ4TU-5 | 2026-09-02 07:07:17 | 42.69301 | 24.15351 | 113° | 49km/h | 4280m | -17.1m/s | -0.0°C | 15.0% | 0hPa | 0V | 00:00:00 | 00:00:00 | 00:00:00 | |
| LZ4TU-5 | 2026-09-02 07:07:12 | 42.69326 | 24.15280 | 119° | 42km/h | 4364m | -16.3m/s | 0.3°C | 5.4% | 0hPa | 0V | 00:00:00 | 00:00:00 | 00:00:00 | |
| LZ4TU-5 | 2026-09-02 07:02:34 | 42.70237 | 24.10262 | 88° | 78km/h | 9203m | -17.5m/s | -33.6°C | 13.8% | 0hPa | 0V | 08:19:00 | 00:00:00 | 00:00:00 | |
| LZ4TU-5 | 2026-09-02 07:02:29 | 42.70230 | 24.10127 | 85° | 80km/h | 9289m | -17.2m/s | -34.4°C | 14.2% | 0hPa | 0V | 00:00:00 | 00:00:00 | 00:00:00 | |
| LZ4TU-5 | 2026-09-02 07:00:20 | 42.69676 | 24.06003 | 74° | 102km/h | 11554m | -20.1m/s | -49.8°C | 15.8% | 0hPa | 0V | 00:00:00 | 00:00:00 | 00:00:00 | |
| LZ4TU-5 | 2026-09-02 07:00:16 | 42.69647 | 24.05868 | 74° | 100km/h | 11631m | -20.1m/s | -50.3°C | 16.0% | 0hPa | 0V | 00:00:00 | 00:00:00 | 00:00:00 | |
| LZ4TU-5 | 2026-09-02 06:59:02 | 42.69151 | 24.03462 | 76° | 99km/h | 13113m | -21.2m/s | -57.7°C | 0% | 0hPa | 0V | 00:00:00 | 00:00:00 | 00:00:00 | |
| LZ3DJ-16 | 2026-09-02 06:58:42 | 42.69033 | 24.02842 | 76° | 93km/h | 13544m | -22.3m/s | -59.0°C | 9.1% | 0hPa | 0V | 08:23:00 | 00:00:00 | 00:00:00 | |
| LZ3DJ-16 | 2026-09-02 06:58:21 | 42.68957 | 24.02228 | 77° | 84km/h | 13989m | -23.2m/s | -60.8°C | 7.1% | 0hPa | 0V | 08:23:00 | 00:00:00 | 00:00:00 | |
| LZ3DJ-16 | 2026-09-02 06:58:01 | 42.68900 | 24.01635 | 83° | 75km/h | 14467m | -23.5m/s | -59.7°C | 4.4% | 0hPa | 0V | 08:24:00 | 00:00:00 | 00:00:00 | |
| LZ3DJ-16 | 2026-09-02 06:57:40 | 42.68860 | 24.01116 | 77° | 69km/h | 14969m | -24.9m/s | -59.1°C | 3.3% | 0hPa | 0V | 08:24:00 | 00:00:00 | 00:00:00 | |
| LZ4TU-5 | 2026-09-02 06:57:37 | 42.68845 | 24.01045 | 75° | 69km/h | 15042m | -25.0m/s | -59.5°C | 3.4% | 0hPa | 0V | 00:00:00 | 00:00:00 | 00:00:00 | |
| LZ4TU-5 | 2026-09-02 06:57:33 | 42.68823 | 24.00953 | 74° | 71km/h | 15146m | -26.1m/s | -59.9°C | 3.1% | 0hPa | 0V | 00:00:00 | 00:00:00 | 00:00:00 | |
| LZ3DJ-16 | 2026-09-02 06:57:19 | 42.68790 | 24.00619 | 83° | 66km/h | 15501m | -25.3m/s | -60.4°C | 3.1% | 0hPa | 0V | 08:24:00 | 00:00:00 | 00:00:00 | |
| LZ3DJ-16 | 2026-09-02 06:56:59 | 42.68724 | 24.00225 | 85° | 60km/h | 16030m | -27.7m/s | -61.4°C | 3.0% | 0hPa | 0V | 08:24:00 | 00:00:00 | 00:00:00 | |
| LZ3DJ-16 | 2026-09-02 06:56:39 | 42.68702 | 23.99831 | 90° | 55km/h | 16583m | -28.2m/s | -60.8°C | 2.5% | 0hPa | 0V | 08:24:00 | 00:00:00 | 00:00:00 | |
| LZ3DJ-16 | 2026-09-02 06:56:17 | 42.68694 | 23.99518 | 75° | 29km/h | 17179m | -29.5m/s | -59.1°C | 2.1% | 0hPa | 0V | 08:25:00 | 00:00:00 | 00:00:00 | |
| LZ4TU-5 | 2026-09-02 06:56:09 | 42.68663 | 23.99438 | 56° | 35km/h | 17442m | -29.8m/s | -59.8°C | 2.2% | 0hPa | 0V | 00:00:00 | 00:00:00 | 00:00:00 | |
| LZ4TU-5 | 2026-09-02 06:56:04 | 42.68641 | 23.99378 | 74° | 38km/h | 17592m | -30.0m/s | -58.7°C | 1.9% | 0hPa | 0V | 00:00:00 | 00:00:00 | 00:00:00 | |
| LZ3DJ-16 | 2026-09-02 06:55:57 | 42.68633 | 23.99301 | 95° | 29km/h | 17799m | -30.2m/s | -58.4°C | 1.9% | 0hPa | 0V | 08:25:00 | 00:00:00 | 00:00:00 | |
| LZ3DJ-16 | 2026-09-02 06:55:37 | 42.68574 | 23.99090 | 63° | 44km/h | 18411m | -31.6m/s | -58.3°C | 1.9% | 0hPa | 0V | 08:26:00 | 00:00:00 | 00:00:00 | |
| LZ3DJ-16 | 2026-09-02 06:55:15 | 42.68510 | 23.98839 | 91° | 26km/h | 19079m | -32.2m/s | -58.3°C | 1.8% | 0hPa | 0V | 08:26:00 | 00:00:00 | 00:00:00 | |
| LZ3DJ-16 | 2026-09-02 06:54:54 | 42.68511 | 23.98716 | 102° | 31km/h | 19782m | -34.5m/s | -57.6°C | 1.8% | 0hPa | 0V | 08:26:00 | 00:00:00 | 00:00:00 | |
| LZ4TU-5 | 2026-09-02 06:54:30 | 42.68545 | 23.98593 | 95° | 4km/h | 20643m | -35.5m/s | -54.1°C | 1.3% | 0hPa | 0V | 00:00:00 | 00:00:00 | 00:00:00 | |
| LZ3DJ-16 | 2026-09-02 06:54:14 | 42.68558 | 23.98582 | 313° | 4km/h | 21217m | -37.7m/s | -54.0°C | 1.3% | 0hPa | 0V | 08:27:00 | 00:00:00 | 00:00:00 | |
| LZ3DJ-16 | 2026-09-02 06:53:52 | 42.68552 | 23.98588 | 85° | 5km/h | 21951m | -36.7m/s | -56.2°C | 1.6% | 0hPa | 0V | 08:28:00 | 00:00:00 | 00:00:00 | |
| LZ3DJ-16 | 2026-09-02 06:53:32 | 42.68510 | 23.98605 | 334° | 16km/h | 22744m | -39.0m/s | -53.7°C | 1.3% | 0hPa | 0V | 08:28:00 | 00:00:00 | 00:00:00 | |
| LZ3DJ-16 | 2026-09-02 06:53:12 | 42.68482 | 23.98612 | 181° | 5km/h | 23563m | -44.4m/s | -52.7°C | 1.3% | 0hPa | 0V | 08:29:00 | 00:00:00 | 00:00:00 | |
| LZ4TU-5 | 2026-09-02 06:53:11 | 42.68484 | 23.98612 | 185° | 5km/h | 23607m | -44.1m/s | -52.6°C | 1.3% | 0hPa | 0V | 00:00:00 | 00:00:00 | 00:00:00 | |
| LZ4TU-5 | 2026-09-02 06:53:06 | 42.68497 | 23.98619 | 213° | 15km/h | 23824m | -43.7m/s | -52.2°C | 1.3% | 0hPa | 0V | 00:00:00 | 00:00:00 | 00:00:00 | |
| LZ3DJ-16 | 2026-09-02 06:52:50 | 42.68534 | 23.98670 | 252° | 9km/h | 24481m | -45.1m/s | -51.6°C | 1.3% | 0hPa | 0V | 08:29:00 | 00:00:00 | 00:00:00 | |
| LZ3DJ-16 | 2026-09-02 06:52:30 | 42.68540 | 23.98721 | 285° | 15km/h | 25404m | -44.8m/s | -49.6°C | 1.2% | 0hPa | 0V | 08:29:00 | 00:00:00 | 00:00:00 | |
| LZ3DJ-16 | 2026-09-02 06:52:09 | 42.68506 | 23.98774 | 234° | 11km/h | 26403m | -47.8m/s | -47.4°C | 1.0% | 0hPa | 0V | 00:00:00 | 00:00:00 | 00:00:00 | |
| LZ3DJ-16 | 2026-09-02 06:51:48 | 42.68527 | 23.98870 | 308° | 11km/h | 27225m | -42.7m/s | -45.7°C | 0.9% | 0hPa | 0V | 00:00:00 | 00:00:00 | 00:00:00 | |
| LZ3DJ-16 | 2026-09-02 06:51:28 | 42.68518 | 23.98973 | 298° | 22km/h | 28027m | -27.7m/s | -45.5°C | 0.9% | 0hPa | 0V | 00:00:00 | 00:00:00 | 00:00:00 | |
| LZ3DJ-16 | 2026-09-02 06:51:07 | 42.68492 | 23.99059 | 254° | 16km/h | 28487m | -29.8m/s | -44.5°C | 0.8% | 0hPa | 0V | 00:00:00 | 00:00:00 | 00:00:00 | |
| LZ3DJ-16 | 2026-09-02 06:50:47 | 42.68530 | 23.99160 | 252° | 13km/h | 28424m | 6.9m/s | -44.9°C | 0.8% | 0hPa | 0V | 00:00:00 | 00:00:00 | 00:00:00 | |
| LZ3DJ-16 | 2026-09-02 06:50:27 | 42.68529 | 23.99229 | 308° | 11km/h | 28288m | 4.4m/s | -45.5°C | 0.9% | 0hPa | 0V | 00:00:00 | 00:00:00 | 00:00:00 | |
| LZ3DJ-16 | 2026-09-02 06:50:07 | 42.68454 | 23.99299 | 307° | 22km/h | 28158m | 7.5m/s | -46.0°C | 0.9% | 0hPa | 0V | 00:00:00 | 00:00:00 | 00:00:00 | |
| LZ3DJ-16 | 2026-09-02 06:49:46 | 42.68421 | 23.99443 | 259° | 26km/h | 28021m | 5.9m/s | -45.3°C | 0.9% | 0hPa | 0V | 00:00:00 | 00:00:00 | 00:00:00 | |
| LZ3DJ-16 | 2026-09-02 06:49:25 | 42.68452 | 23.99612 | 287° | 24km/h | 27881m | 7.6m/s | -44.6°C | 0.9% | 0hPa | 0V | 00:00:00 | 00:00:00 | 00:00:00 | |
| LZ3DJ-16 | 2026-09-02 06:49:04 | 42.68433 | 23.99728 | 260° | 9km/h | 27746m | 7.5m/s | -44.5°C | 0.9% | 0hPa | 0V | 00:00:00 | 00:00:00 | 00:00:00 | |
| LZ3DJ-16 | 2026-09-02 06:48:43 | 42.68417 | 23.99764 | 0° | 0km/h | 27612m | 5.9m/s | -45.2°C | 0.9% | 0hPa | 0V | 00:00:00 | 00:00:00 | 00:00:00 | |
| LZ3DJ-16 | 2026-09-02 06:48:02 | 42.68312 | 23.99873 | 326° | 27km/h | 27342m | 7.9m/s | -45.7°C | 0.8% | 0hPa | 0V | 00:00:00 | 00:00:00 | 00:00:00 | |
| LZ3DJ-16 | 2026-09-02 06:47:41 | 42.68259 | 24.00001 | 240° | 24km/h | 27205m | 6.1m/s | -46.5°C | 0.9% | 0hPa | 0V | 00:00:00 | 00:00:00 | 00:00:00 | |
| LZ3DJ-16 | 2026-09-02 06:47:21 | 42.68274 | 24.00102 | 248° | 20km/h | 27069m | 7.8m/s | -46.8°C | 0.9% | 0hPa | 0V | 00:00:00 | 00:00:00 | 00:00:00 | |
| LZ3DJ-16 | 2026-09-02 06:47:00 | 42.68294 | 24.00214 | 241° | 20km/h | 26933m | 6.3m/s | -47.0°C | 1.0% | 0hPa | 0V | 00:00:00 | 00:00:00 | 00:00:00 | |
| LZ3DJ-16 | 2026-09-02 06:46:40 | 42.68363 | 24.00326 | 223° | 16km/h | 26793m | 7.8m/s | -47.2°C | 0.9% | 0hPa | 0V | 00:00:00 | 00:00:00 | 00:00:00 | |
| LZ3DJ-16 | 2026-09-02 06:46:20 | 42.68417 | 24.00404 | 240° | 16km/h | 26660m | 9.8m/s | -47.7°C | 0.9% | 0hPa | 0V | 00:00:00 | 00:00:00 | 00:00:00 | |
| LZ3DJ-16 | 2026-09-02 06:46:00 | 42.68467 | 24.00438 | 86° | 7km/h | 26529m | 4.5m/s | -48.1°C | 1.0% | 0hPa | 0V | 00:00:00 | 00:00:00 | 00:00:00 | |
| LZ3DJ-16 | 2026-09-02 06:45:39 | 42.68468 | 24.00436 | 345° | 7km/h | 26391m | 5.8m/s | -47.6°C | 1.0% | 0hPa | 0V | 00:00:00 | 00:00:00 | 00:00:00 | |
| LZ3DJ-16 | 2026-09-02 06:45:18 | 42.68445 | 24.00501 | 286° | 20km/h | 26258m | 6.6m/s | -48.2°C | 1.0% | 0hPa | 0V | 00:00:00 | 00:00:00 | 00:00:00 | |
| LZ3DJ-16 | 2026-09-02 06:44:57 | 42.68418 | 24.00578 | 337° | 11km/h | 26134m | 6.0m/s | -48.2°C | 1.0% | 0hPa | 0V | 00:00:00 | 00:00:00 | 00:00:00 | |
| LZ3DJ-16 | 2026-09-02 06:44:36 | 42.68399 | 24.00570 | 2° | 7km/h | 26003m | 7.1m/s | -49.1°C | 1.0% | 0hPa | 0V | 00:00:00 | 00:00:00 | 00:00:00 | |
| LZ3DJ-16 | 2026-09-02 06:44:16 | 42.68327 | 24.00601 | 319° | 22km/h | 25872m | 5.5m/s | -49.3°C | 1.0% | 0hPa | 0V | 00:00:00 | 00:00:00 | 00:00:00 | |
| LZ3DJ-16 | 2026-09-02 06:43:55 | 42.68203 | 24.00727 | 315° | 18km/h | 25744m | 5.0m/s | -49.6°C | 1.1% | 0hPa | 0V | 00:00:00 | 00:00:00 | 00:00:00 | |
| LZ3DJ-16 | 2026-09-02 06:43:14 | 42.68177 | 24.01040 | 241° | 13km/h | 25495m | 9.5m/s | -50.5°C | 1.1% | 0hPa | 0V | 00:00:00 | 00:00:00 | 00:00:00 | |
| LZ3DJ-16 | 2026-09-02 06:42:53 | 42.68253 | 24.01088 | 191° | 15km/h | 25361m | 5.9m/s | -51.0°C | 1.1% | 0hPa | 0V | 00:00:00 | 00:00:00 | 00:00:00 | |
| LZ3DJ-16 | 2026-09-02 06:42:32 | 42.68287 | 24.01058 | 112° | 4km/h | 25229m | 7.0m/s | -51.4°C | 1.2% | 0hPa | 0V | 00:00:00 | 00:00:00 | 00:00:00 | |
| LZ3DJ-16 | 2026-09-02 06:42:12 | 42.68277 | 24.01098 | 316° | 9km/h | 25100m | 6.8m/s | -51.8°C | 1.2% | 0hPa | 0V | 00:00:00 | 00:00:00 | 00:00:00 | |
| LZ3DJ-16 | 2026-09-02 06:41:51 | 42.68269 | 24.01177 | 250° | 20km/h | 24965m | 8.0m/s | -51.4°C | 1.2% | 0hPa | 0V | 00:00:00 | 00:00:00 | 00:00:00 | |
| LZ3DJ-16 | 2026-09-02 06:41:30 | 42.68264 | 24.01280 | 315° | 13km/h | 24831m | 4.6m/s | -51.4°C | 1.2% | 0hPa | 0V | 00:00:00 | 00:00:00 | 00:00:00 | |
| LZ3DJ-16 | 2026-09-02 06:40:50 | 42.68273 | 24.01412 | 236° | 13km/h | 24570m | 7.7m/s | -51.5°C | 1.2% | 0hPa | 0V | 00:00:00 | 00:00:00 | 00:00:00 | |
| LZ3DJ-16 | 2026-09-02 06:40:30 | 42.68312 | 24.01499 | 300° | 15km/h | 24436m | 4.8m/s | -51.3°C | 1.1% | 0hPa | 0V | 00:00:00 | 00:00:00 | 00:00:00 | |
| LZ3DJ-16 | 2026-09-02 06:40:09 | 42.68348 | 24.01534 | 155° | 11km/h | 24308m | 8.8m/s | -52.2°C | 1.2% | 0hPa | 0V | 00:00:00 | 00:00:00 | 00:00:00 | |
| LZ3DJ-16 | 2026-09-02 06:39:49 | 42.68413 | 24.01578 | 222° | 20km/h | 24177m | 3.0m/s | -52.9°C | 1.3% | 0hPa | 0V | 00:00:00 | 00:00:00 | 00:00:00 | |
| LZ3DJ-16 | 2026-09-02 06:39:29 | 42.68477 | 24.01637 | 193° | 7km/h | 24042m | 9.7m/s | -52.6°C | 1.3% | 0hPa | 0V | 00:00:00 | 00:00:00 | 00:00:00 | |
| LZ3DJ-16 | 2026-09-02 06:39:08 | 42.68537 | 24.01657 | 186° | 13km/h | 23913m | 6.3m/s | -52.4°C | 1.2% | 0hPa | 0V | 00:00:00 | 00:00:00 | 00:00:00 | |
| LZ3DJ-16 | 2026-09-02 06:38:48 | 42.68599 | 24.01640 | 166° | 9km/h | 23786m | 5.3m/s | -52.4°C | 1.2% | 0hPa | 0V | 00:00:00 | 00:00:00 | 00:00:00 | |
| LZ3DJ-16 | 2026-09-02 06:38:27 | 42.68599 | 24.01638 | 313° | 9km/h | 23660m | 7.2m/s | -53.1°C | 1.3% | 0hPa | 0V | 00:00:00 | 00:00:00 | 00:00:00 | |
| LZ3DJ-16 | 2026-09-02 06:38:06 | 42.68628 | 24.01585 | 123° | 18km/h | 23535m | 4.4m/s | -53.1°C | 1.3% | 0hPa | 0V | 00:00:00 | 00:00:00 | 00:00:00 | |
| LZ3DJ-16 | 2026-09-02 06:37:46 | 42.68651 | 24.01508 | 356° | 7km/h | 23414m | 5.1m/s | -53.1°C | 1.3% | 0hPa | 0V | 00:00:00 | 00:00:00 | 00:00:00 | |
| LZ3DJ-16 | 2026-09-02 06:37:25 | 42.68601 | 24.01491 | 342° | 15km/h | 23287m | 7.5m/s | -53.3°C | 1.3% | 0hPa | 0V | 00:00:00 | 00:00:00 | 00:00:00 | |
| LZ3DJ-16 | 2026-09-02 06:37:05 | 42.68551 | 24.01574 | 277° | 26km/h | 23161m | 5.4m/s | -53.1°C | 1.4% | 0hPa | 0V | 00:00:00 | 00:00:00 | 00:00:00 | |
| LZ3DJ-16 | 2026-09-02 06:36:44 | 42.68511 | 24.01659 | 329° | 13km/h | 23034m | 5.3m/s | -52.3°C | 1.2% | 0hPa | 0V | 00:00:00 | 00:00:00 | 00:00:00 | |
| LZ3DJ-16 | 2026-09-02 06:36:23 | 42.68484 | 24.01665 | 354° | 9km/h | 22904m | 5.3m/s | -53.1°C | 1.3% | 0hPa | 0V | 00:00:00 | 00:00:00 | 00:00:00 | |
| LZ3DJ-16 | 2026-09-02 06:36:02 | 42.68426 | 24.01713 | 299° | 15km/h | 22771m | 4.0m/s | -53.0°C | 1.3% | 0hPa | 0V | 00:00:00 | 00:00:00 | 00:00:00 | |
| LZ3DJ-16 | 2026-09-02 06:35:42 | 42.68374 | 24.01818 | 319° | 22km/h | 22646m | 5.2m/s | -53.2°C | 1.3% | 0hPa | 0V | 00:00:00 | 00:00:00 | 00:00:00 | |
| LZ3DJ-16 | 2026-09-02 06:35:21 | 42.68329 | 24.01870 | 48° | 5km/h | 22519m | 6.0m/s | -53.9°C | 1.3% | 0hPa | 0V | 00:00:00 | 00:00:00 | 00:00:00 | |
| LZ3DJ-16 | 2026-09-02 06:35:01 | 42.68324 | 24.01851 | 94° | 5km/h | 22394m | 8.0m/s | -55.5°C | 1.4% | 0hPa | 0V | 00:00:00 | 00:00:00 | 00:00:00 | |
| LZ3DJ-16 | 2026-09-02 06:34:40 | 42.68279 | 24.01843 | 31° | 13km/h | 22265m | 7.7m/s | -57.0°C | 1.6% | 0hPa | 0V | 00:00:00 | 00:00:00 | 00:00:00 | |
| LZ3DJ-16 | 2026-09-02 06:34:19 | 42.68253 | 24.01797 | 128° | 7km/h | 22134m | 3.7m/s | -57.3°C | 1.7% | 0hPa | 0V | 00:00:00 | 00:00:00 | 00:00:00 | |
| LZ3DJ-16 | 2026-09-02 06:33:58 | 42.68230 | 24.01744 | 56° | 9km/h | 22014m | 7.4m/s | -56.9°C | 1.6% | 0hPa | 0V | 00:00:00 | 00:00:00 | 00:00:00 | |
| LZ3DJ-16 | 2026-09-02 06:33:38 | 42.68197 | 24.01723 | 347° | 18km/h | 21894m | 8.2m/s | -56.9°C | 1.6% | 0hPa | 0V | 00:00:00 | 00:00:00 | 00:00:00 | |
| LZ3DJ-16 | 2026-09-02 06:33:18 | 42.68164 | 24.01755 | 264° | 11km/h | 21767m | 8.7m/s | -56.1°C | 1.6% | 0hPa | 0V | 00:00:00 | 00:00:00 | 00:00:00 | |
| LZ3DJ-16 | 2026-09-02 06:32:57 | 42.68166 | 24.01809 | 228° | 9km/h | 21637m | 4.8m/s | -55.5°C | 1.6% | 0hPa | 0V | 00:00:00 | 00:00:00 | 00:00:00 | |
| LZ3DJ-16 | 2026-09-02 06:32:37 | 42.68192 | 24.01858 | 256° | 2km/h | 21512m | 7.8m/s | -54.5°C | 1.5% | 0hPa | 0V | 00:00:00 | 00:00:00 | 00:00:00 | |
| LZ3DJ-16 | 2026-09-02 06:32:17 | 42.68200 | 24.01896 | 218° | 7km/h | 21394m | 6.1m/s | -54.6°C | 1.5% | 0hPa | 0V | 00:00:00 | 00:00:00 | 00:00:00 | |
| LZ4TU-5 | 2026-09-02 06:31:59 | 42.68195 | 24.01900 | 227° | 4km/h | 21285m | 4.5m/s | -54.0°C | 1.4% | 0hPa | 0V | 00:00:00 | 00:00:00 | 00:00:00 | |
| LZ3DJ-16 | 2026-09-02 06:31:57 | 42.68194 | 24.01899 | 41° | 9km/h | 21273m | 6.4m/s | -54.1°C | 1.4% | 0hPa | 0V | 00:00:00 | 00:00:00 | 00:00:00 | |
| LZ4TU-5 | 2026-09-02 06:31:54 | 42.68184 | 24.01892 | 17° | 15km/h | 21256m | 5.4m/s | -54.3°C | 1.5% | 0hPa | 0V | 00:00:00 | 00:00:00 | 00:00:00 | |
| LZ3DJ-16 | 2026-09-02 06:31:36 | 42.68175 | 24.01892 | 0° | 0km/h | 21149m | 4.2m/s | -53.5°C | 1.4% | 0hPa | 0V | 00:00:00 | 00:00:00 | 00:00:00 | |
| LZ3DJ-16 | 2026-09-02 06:31:16 | 42.68193 | 24.01925 | 214° | 13km/h | 21032m | 5.5m/s | -53.0°C | 1.4% | 0hPa | 0V | 00:00:00 | 00:00:00 | 00:00:00 | |
| LZ3DJ-16 | 2026-09-02 06:30:56 | 42.68236 | 24.01938 | 183° | 13km/h | 20911m | 5.4m/s | -53.4°C | 1.4% | 0hPa | 0V | 00:00:00 | 00:00:00 | 00:00:00 | |
| LZ3DJ-16 | 2026-09-02 06:30:14 | 42.68258 | 24.01773 | 47° | 16km/h | 20658m | 3.3m/s | -54.5°C | 1.4% | 0hPa | 0V | 00:00:00 | 00:00:00 | 00:00:00 | |
| LZ4TU-5 | 2026-09-02 06:29:59 | 42.68246 | 24.01720 | 37° | 13km/h | 20565m | 5.3m/s | -54.0°C | 1.4% | 0hPa | 0V | 00:00:00 | 00:00:00 | 00:00:00 | |
| LZ4TU-5 | 2026-09-02 06:29:55 | 42.68240 | 24.01715 | 142° | 5km/h | 20538m | 6.6m/s | -54.0°C | 1.4% | 0hPa | 0V | 00:00:00 | 00:00:00 | 00:00:00 | |
| LZ3DJ-16 | 2026-09-02 06:29:54 | 42.68240 | 24.01715 | 142° | 5km/h | 20538m | 6.6m/s | -54.0°C | 1.4% | 0hPa | 0V | 00:00:00 | 00:00:00 | 00:00:00 | |
| LZ4TU-5 | 2026-09-02 06:29:50 | 42.68254 | 24.01703 | 154° | 16km/h | 20510m | 2.9m/s | -54.3°C | 1.3% | 0hPa | 0V | 00:00:00 | 00:00:00 | 00:00:00 | |
| LZ3DJ-16 | 2026-09-02 06:29:34 | 42.68259 | 24.01638 | 34° | 18km/h | 20416m | 4.7m/s | -55.8°C | 1.5% | 0hPa | 0V | 00:00:00 | 00:00:00 | 00:00:00 | |
| LZ3DJ-16 | 2026-09-02 06:29:13 | 42.68234 | 24.01552 | 115° | 22km/h | 20285m | 4.4m/s | -55.4°C | 1.5% | 0hPa | 0V | 00:00:00 | 00:00:00 | 00:00:00 | |
| LZ3DJ-16 | 2026-09-02 06:28:52 | 42.68288 | 24.01416 | 132° | 22km/h | 20163m | 7.4m/s | -56.5°C | 1.6% | 0hPa | 0V | 00:00:00 | 00:00:00 | 00:00:00 | |
| LZ3DJ-16 | 2026-09-02 06:28:31 | 42.68353 | 24.01228 | 102° | 35km/h | 20038m | 6.1m/s | -57.2°C | 1.6% | 0hPa | 0V | 00:00:00 | 00:00:00 | 00:00:00 | |
| LZ4TU-5 | 2026-09-02 06:28:16 | 42.68382 | 24.01066 | 95° | 29km/h | 19958m | 4.0m/s | -57.0°C | 1.6% | 0hPa | 0V | 00:00:00 | 00:00:00 | 00:00:00 | |
| LZ4TU-5 | 2026-09-02 06:28:11 | 42.68383 | 24.01020 | 100° | 27km/h | 19931m | 6.1m/s | -57.3°C | 1.6% | 0hPa | 0V | 00:00:00 | 00:00:00 | 00:00:00 | |
| LZ3DJ-16 | 2026-09-02 06:28:10 | 42.68384 | 24.01010 | 98° | 29km/h | 19926m | 4.2m/s | -57.3°C | 1.6% | 0hPa | 0V | 00:00:00 | 00:00:00 | 00:00:00 | |
| LZ3DJ-16 | 2026-09-02 06:27:49 | 42.68367 | 24.00795 | 58° | 29km/h | 19808m | 4.9m/s | -58.0°C | 1.8% | 0hPa | 0V | 00:00:00 | 00:00:00 | 00:00:00 | |
| LZ3DJ-16 | 2026-09-02 06:27:29 | 42.68315 | 24.00658 | 65° | 22km/h | 19693m | 5.5m/s | -58.0°C | 1.8% | 0hPa | 0V | 00:00:00 | 00:00:00 | 00:00:00 | |
| LZ3DJ-16 | 2026-09-02 06:27:09 | 42.68279 | 24.00618 | 288° | 2km/h | 19579m | 6.2m/s | -58.0°C | 1.8% | 0hPa | 0V | 00:00:00 | 00:00:00 | 00:00:00 | |
| LZ3DJ-16 | 2026-09-02 06:26:48 | 42.68293 | 24.00572 | 130° | 16km/h | 19456m | 3.2m/s | -58.4°C | 1.7% | 0hPa | 0V | 00:00:00 | 00:00:00 | 00:00:00 | |
| LZ3DJ-16 | 2026-09-02 06:26:27 | 42.68339 | 24.00449 | 122° | 22km/h | 19335m | 6.9m/s | -59.2°C | 1.9% | 0hPa | 0V | 00:00:00 | 00:00:00 | 00:00:00 | |
| LZ4TU-5 | 2026-09-02 06:26:26 | 42.68341 | 24.00443 | 116° | 20km/h | 19329m | 5.0m/s | -59.2°C | 1.9% | 0hPa | 0V | 00:00:00 | 00:00:00 | 00:00:00 | |
| LZ4TU-5 | 2026-09-02 06:26:22 | 42.68343 | 24.00422 | 90° | 13km/h | 19305m | 7.2m/s | -59.3°C | 1.9% | 0hPa | 0V | 00:00:00 | 00:00:00 | 00:00:00 | |
| LZ3DJ-16 | 2026-09-02 06:26:06 | 42.68341 | 24.00310 | 83° | 24km/h | 19205m | 4.7m/s | -58.9°C | 1.9% | 0hPa | 0V | 00:00:00 | 00:00:00 | 00:00:00 | |
| LZ3DJ-16 | 2026-09-02 06:25:46 | 42.68311 | 24.00141 | 73° | 26km/h | 19084m | 5.9m/s | -58.2°C | 1.8% | 0hPa | 0V | 00:00:00 | 00:00:00 | 00:00:00 | |
| LZ3DJ-16 | 2026-09-02 06:25:26 | 42.68265 | 23.99961 | 71° | 35km/h | 18974m | 6.3m/s | -57.8°C | 1.8% | 0hPa | 0V | 00:00:00 | 00:00:00 | 00:00:00 | |
| LZ3DJ-16 | 2026-09-02 06:25:05 | 42.68200 | 23.99725 | 67° | 35km/h | 18858m | 5.2m/s | -57.4°C | 1.8% | 0hPa | 0V | 00:00:00 | 00:00:00 | 00:00:00 | |
| LZ4TU-5 | 2026-09-02 06:24:57 | 42.68171 | 23.99621 | 79° | 37km/h | 18805m | 5.8m/s | -57.1°C | 1.7% | 0hPa | 0V | 00:00:00 | 00:00:00 | 00:00:00 | |
| LZ4TU-5 | 2026-09-02 06:24:52 | 42.68164 | 23.99560 | 80° | 33km/h | 18772m | 7.2m/s | -57.0°C | 1.8% | 0hPa | 0V | 00:00:00 | 00:00:00 | 00:00:00 | |
| LZ3DJ-16 | 2026-09-02 06:24:45 | 42.68147 | 23.99495 | 73° | 40km/h | 18737m | 4.8m/s | -57.1°C | 1.7% | 0hPa | 0V | 00:00:00 | 00:00:00 | 00:00:00 | |
| LZ3DJ-16 | 2026-09-02 06:24:25 | 42.68077 | 23.99228 | 71° | 42km/h | 18610m | 4.8m/s | -58.2°C | 1.8% | 0hPa | 0V | 00:00:00 | 00:00:00 | 00:00:00 | |
| LZ3DJ-16 | 2026-09-02 06:24:04 | 42.67964 | 23.98969 | 53° | 44km/h | 18491m | 5.3m/s | -58.9°C | 2.0% | 0hPa | 0V | 00:00:00 | 00:00:00 | 00:00:00 | |
| LZ3DJ-16 | 2026-09-02 06:23:44 | 42.67804 | 23.98728 | 46° | 42km/h | 18366m | 5.0m/s | -58.4°C | 1.8% | 0hPa | 0V | 00:00:00 | 00:00:00 | 00:00:00 | |
| LZ4TU-5 | 2026-09-02 06:23:27 | 42.67702 | 23.98571 | 53° | 33km/h | 18264m | 5.4m/s | -58.8°C | 2.0% | 0hPa | 0V | 00:00:00 | 00:00:00 | 00:00:00 | |
| LZ3DJ-16 | 2026-09-02 06:23:23 | 42.67688 | 23.98546 | 55° | 27km/h | 18247m | 5.5m/s | -58.8°C | 2.0% | 0hPa | 0V | 00:00:00 | 00:00:00 | 00:00:00 | |
| LZ4TU-5 | 2026-09-02 06:23:22 | 42.67680 | 23.98530 | 62° | 29km/h | 18235m | 5.7m/s | -58.7°C | 2.0% | 0hPa | 0V | 00:00:00 | 00:00:00 | 00:00:00 | |
| LZ3DJ-16 | 2026-09-02 06:23:03 | 42.67635 | 23.98380 | 77° | 26km/h | 18129m | 5.0m/s | -57.9°C | 1.9% | 0hPa | 0V | 00:00:00 | 00:00:00 | 00:00:00 | |
| LZ3DJ-16 | 2026-09-02 06:22:43 | 42.67617 | 23.98206 | 95° | 24km/h | 18004m | 5.8m/s | -57.9°C | 1.9% | 0hPa | 0V | 00:00:00 | 00:00:00 | 00:00:00 | |
| LZ3DJ-16 | 2026-09-02 06:22:21 | 42.67645 | 23.98011 | 108° | 29km/h | 17881m | 4.2m/s | -58.8°C | 2.1% | 0hPa | 0V | 00:00:00 | 00:00:00 | 00:00:00 | |
| LZ3DJ-16 | 2026-09-02 06:22:01 | 42.67647 | 23.97779 | 87° | 35km/h | 17759m | 6.1m/s | -58.7°C | 2.0% | 0hPa | 0V | 00:00:00 | 00:00:00 | 00:00:00 | |
| LZ4TU-5 | 2026-09-02 06:21:50 | 42.67634 | 23.97646 | 87° | 40km/h | 17694m | 4.9m/s | -58.7°C | 2.0% | 0hPa | 0V | 00:00:00 | 00:00:00 | 00:00:00 | |
| LZ4TU-5 | 2026-09-02 06:21:45 | 42.67632 | 23.97593 | 83° | 40km/h | 17670m | 4.2m/s | -58.7°C | 2.0% | 0hPa | 0V | 00:00:00 | 00:00:00 | 00:00:00 | |
| LZ3DJ-16 | 2026-09-02 06:21:40 | 42.67624 | 23.97508 | 85° | 42km/h | 17636m | 6.4m/s | -59.0°C | 2.1% | 0hPa | 0V | 00:00:00 | 00:00:00 | 00:00:00 | |
| LZ3DJ-16 | 2026-09-02 06:21:19 | 42.67547 | 23.97245 | 63° | 35km/h | 17514m | 8.1m/s | -59.4°C | 2.1% | 0hPa | 0V | 00:00:00 | 00:00:00 | 00:00:00 | |
| LZ3DJ-16 | 2026-09-02 06:20:58 | 42.67477 | 23.97092 | 58° | 18km/h | 17393m | 4.6m/s | -59.8°C | 2.2% | 0hPa | 0V | 00:00:00 | 00:00:00 | 00:00:00 | |
| LZ3DJ-16 | 2026-09-02 06:20:37 | 42.67449 | 23.96936 | 92° | 29km/h | 17271m | 6.1m/s | -59.7°C | 2.2% | 0hPa | 0V | 00:00:00 | 00:00:00 | 00:00:00 | |
| LZ4TU-5 | 2026-09-02 06:20:21 | 42.67456 | 23.96774 | 101° | 35km/h | 17177m | 7.8m/s | -59.5°C | 2.3% | 0hPa | 0V | 00:00:00 | 00:00:00 | 00:00:00 | |
| LZ3DJ-16 | 2026-09-02 06:20:16 | 42.67465 | 23.96716 | 101° | 35km/h | 17149m | 6.9m/s | -59.1°C | 2.2% | 0hPa | 0V | 00:00:00 | 00:00:00 | 00:00:00 | |
| LZ3DJ-16 | 2026-09-02 06:19:55 | 42.67505 | 23.96447 | 101° | 49km/h | 17028m | 7.9m/s | -58.6°C | 2.3% | 0hPa | 0V | 00:00:00 | 00:00:00 | 00:00:00 | |
| LZ3DJ-16 | 2026-09-02 06:19:35 | 42.67550 | 23.96095 | 96° | 51km/h | 16901m | 7.4m/s | -57.8°C | 2.2% | 0hPa | 0V | 00:00:00 | 00:00:00 | 00:00:00 | |
| LZ4TU-5 | 2026-09-02 06:18:56 | 42.67597 | 23.95353 | 101° | 47km/h | 16686m | 5.1m/s | -58.8°C | 2.6% | 0hPa | 0V | 00:00:00 | 00:00:00 | 00:00:00 | |
| LZ3DJ-16 | 2026-09-02 06:18:54 | 42.67603 | 23.95322 | 104° | 44km/h | 16675m | 3.8m/s | -59.0°C | 2.6% | 0hPa | 0V | 00:00:00 | 00:00:00 | 00:00:00 | |
| LZ4TU-5 | 2026-09-02 06:18:52 | 42.67606 | 23.95292 | 99° | 46km/h | 16663m | 4.0m/s | -59.0°C | 2.6% | 0hPa | 0V | 00:00:00 | 00:00:00 | 00:00:00 | |
| LZ3DJ-16 | 2026-09-02 06:18:34 | 42.67624 | 23.94967 | 94° | 62km/h | 16566m | 5.8m/s | -60.5°C | 3.1% | 0hPa | 0V | 00:00:00 | 00:00:00 | 00:00:00 | |
| LZ3DJ-16 | 2026-09-02 06:18:13 | 42.67607 | 23.94546 | 77° | 60km/h | 16445m | 5.4m/s | -60.9°C | 3.4% | 0hPa | 0V | 00:00:00 | 00:00:00 | 00:00:00 | |
| LZ3DJ-16 | 2026-09-02 06:17:53 | 42.67522 | 23.94152 | 73° | 53km/h | 16325m | 3.7m/s | -60.6°C | 3.5% | 0hPa | 0V | 00:00:00 | 00:00:00 | 00:00:00 | |
| LZ3DJ-16 | 2026-09-02 06:17:32 | 42.67481 | 23.93751 | 90° | 60km/h | 16203m | 5.6m/s | -61.3°C | 3.8% | 0hPa | 0V | 00:00:00 | 00:00:00 | 00:00:00 | |
| LZ4TU-5 | 2026-09-02 06:17:24 | 42.67479 | 23.93586 | 85° | 62km/h | 16159m | 6.2m/s | -62.1°C | 4.1% | 0hPa | 0V | 00:00:00 | 00:00:00 | 00:00:00 | |
| LZ4TU-5 | 2026-09-02 06:17:20 | 42.67471 | 23.93503 | 82° | 60km/h | 16135m | 5.6m/s | -62.1°C | 4.2% | 0hPa | 0V | 00:00:00 | 00:00:00 | 00:00:00 | |
| LZ3DJ-16 | 2026-09-02 06:17:12 | 42.67447 | 23.93348 | 76° | 55km/h | 16086m | 5.3m/s | -61.8°C | 4.0% | 0hPa | 0V | 00:00:00 | 00:00:00 | 00:00:00 | |
| LZ3DJ-16 | 2026-09-02 06:16:51 | 42.67365 | 23.93032 | 67° | 44km/h | 15968m | 6.1m/s | -61.5°C | 4.0% | 0hPa | 0V | 00:00:00 | 00:00:00 | 00:00:00 | |
| LZ3DJ-16 | 2026-09-02 06:16:31 | 42.67276 | 23.92750 | 72° | 46km/h | 15858m | 7.2m/s | -61.3°C | 4.0% | 0hPa | 0V | 00:00:00 | 00:00:00 | 00:00:00 | |
| LZ3DJ-16 | 2026-09-02 06:16:11 | 42.67209 | 23.92418 | 76° | 57km/h | 15739m | 5.4m/s | -61.5°C | 3.7% | 0hPa | 0V | 00:00:00 | 00:00:00 | 00:00:00 | |
| LZ3DJ-16 | 2026-09-02 06:15:50 | 42.67130 | 23.92011 | 75° | 60km/h | 15621m | 4.4m/s | -61.6°C | 3.7% | 0hPa | 0V | 00:00:00 | 00:00:00 | 00:00:00 | |
| LZ4TU-5 | 2026-09-02 06:15:43 | 42.67106 | 23.91862 | 81° | 68km/h | 15580m | 7.5m/s | -61.3°C | 3.8% | 0hPa | 0V | 00:00:00 | 00:00:00 | 00:00:00 | |
| LZ3DJ-16 | 2026-09-02 06:15:30 | 42.67069 | 23.91570 | 79° | 69km/h | 15503m | 5.5m/s | -60.7°C | 3.6% | 0hPa | 0V | 00:00:00 | 00:00:00 | 00:00:00 | |
| LZ3DJ-16 | 2026-09-02 06:15:09 | 42.67001 | 23.91074 | 85° | 75km/h | 15384m | 8.5m/s | -60.5°C | 4.0% | 0hPa | 0V | 00:00:00 | 00:00:00 | 00:00:00 | |
| LZ3DJ-16 | 2026-09-02 06:14:48 | 42.66926 | 23.90551 | 75° | 75km/h | 15260m | 5.6m/s | -60.4°C | 4.1% | 0hPa | 0V | 00:00:00 | 00:00:00 | 00:00:00 | |
| LZ3DJ-16 | 2026-09-02 06:14:27 | 42.66824 | 23.90053 | 78° | 69km/h | 15141m | 4.7m/s | -60.0°C | 4.0% | 0hPa | 0V | 00:00:00 | 00:00:00 | 00:00:00 | |
| LZ4TU-5 | 2026-09-02 06:14:17 | 42.66774 | 23.89818 | 70° | 68km/h | 15081m | 4.9m/s | -59.6°C | 4.1% | 0hPa | 0V | 00:00:00 | 00:00:00 | 00:00:00 | |
| LZ4TU-5 | 2026-09-02 06:14:13 | 42.66751 | 23.89734 | 70° | 66km/h | 15061m | 5.1m/s | -59.4°C | 4.0% | 0hPa | 0V | 00:00:00 | 00:00:00 | 00:00:00 | |
| LZ4TU-5 | 2026-09-02 06:14:08 | 42.66725 | 23.89617 | 79° | 75km/h | 15029m | 5.5m/s | -59.5°C | 4.3% | 0hPa | 0V | 00:00:00 | 00:00:00 | 00:00:00 | |
| LZ3DJ-16 | 2026-09-02 06:14:06 | 42.66721 | 23.89592 | 79° | 75km/h | 15024m | 4.9m/s | -59.5°C | 4.2% | 0hPa | 0V | 00:00:00 | 00:00:00 | 00:00:00 | |
| LZ3DJ-16 | 2026-09-02 06:13:46 | 42.66650 | 23.89094 | 83° | 71km/h | 14894m | 6.9m/s | -59.2°C | 4.6% | 0hPa | 0V | 00:00:00 | 00:00:00 | 00:00:00 | |
| LZ3DJ-16 | 2026-09-02 06:13:24 | 42.66623 | 23.88551 | 86° | 75km/h | 14771m | 6.9m/s | -59.5°C | 5.4% | 0hPa | 0V | 00:00:00 | 00:00:00 | 00:00:00 | |
| LZ3DJ-16 | 2026-09-02 06:13:04 | 42.66608 | 23.88016 | 86° | 77km/h | 14647m | 4.6m/s | -60.2°C | 6.2% | 0hPa | 0V | 00:00:00 | 00:00:00 | 00:00:00 | |
| LZ4TU-5 | 2026-09-02 06:12:44 | 42.66593 | 23.87466 | 89° | 77km/h | 14533m | 4.1m/s | -60.0°C | 7.0% | 0hPa | 0V | 00:00:00 | 00:00:00 | 00:00:00 | |
| LZ3DJ-16 | 2026-09-02 06:12:43 | 42.66592 | 23.87440 | 90° | 77km/h | 14527m | 6.2m/s | -59.8°C | 6.9% | 0hPa | 0V | 00:00:00 | 00:00:00 | 00:00:00 | |
| LZ4TU-5 | 2026-09-02 06:12:40 | 42.66591 | 23.87359 | 89° | 80km/h | 14511m | 4.3m/s | -59.9°C | 7.1% | 0hPa | 0V | 00:00:00 | 00:00:00 | 00:00:00 | |
| LZ3DJ-16 | 2026-09-02 06:12:22 | 42.66589 | 23.86856 | 94° | 86km/h | 14407m | 6.0m/s | -59.3°C | 7.7% | 0hPa | 0V | 00:00:00 | 00:00:00 | 00:00:00 | |
| LZ3DJ-16 | 2026-09-02 06:12:01 | 42.66576 | 23.86245 | 85° | 89km/h | 14290m | 6.6m/s | -60.9°C | 10.0% | 0hPa | 0V | 00:00:00 | 00:00:00 | 00:00:00 | |
| LZ3DJ-16 | 2026-09-02 06:11:40 | 42.66496 | 23.85610 | 77° | 97km/h | 14169m | 4.4m/s | -60.8°C | 10.1% | 0hPa | 0V | 00:00:00 | 00:00:00 | 00:00:00 | |
| LZ3DJ-16 | 2026-09-02 06:11:19 | 42.66393 | 23.84955 | 82° | 91km/h | 14050m | 4.9m/s | -60.2°C | 10.0% | 0hPa | 0V | 00:00:00 | 00:00:00 | 00:00:00 | |
| LZ4TU-5 | 2026-09-02 06:11:16 | 42.66382 | 23.84862 | 83° | 91km/h | 14032m | 7.3m/s | -60.1°C | 9.9% | 0hPa | 0V | 00:00:00 | 00:00:00 | 00:00:00 | |
| LZ4TU-5 | 2026-09-02 06:11:11 | 42.66366 | 23.84713 | 80° | 86km/h | 14002m | 6.2m/s | -60.0°C | 9.8% | 0hPa | 0V | 00:00:00 | 00:00:00 | 00:00:00 | |
| LZ3DJ-16 | 2026-09-02 06:10:58 | 42.66322 | 23.84341 | 86° | 86km/h | 13935m | 4.1m/s | -59.8°C | 11.1% | 0hPa | 0V | 00:00:00 | 00:00:00 | 00:00:00 | |
| LZ3DJ-16 | 2026-09-02 06:10:37 | 42.66290 | 23.83714 | 82° | 88km/h | 13820m | 5.0m/s | -59.1°C | 11.7% | 0hPa | 0V | 00:00:00 | 00:00:00 | 00:00:00 | |
| LZ3DJ-16 | 2026-09-02 06:10:16 | 42.66197 | 23.83091 | 74° | 97km/h | 13705m | 7.5m/s | -59.5°C | 11.9% | 0hPa | 0V | 00:00:00 | 00:00:00 | 00:00:00 | |
| LZ3DJ-16 | 2026-09-02 06:09:56 | 42.66067 | 23.82415 | 76° | 95km/h | 13600m | 4.2m/s | -60.1°C | 13.8% | 0hPa | 0V | 00:00:00 | 00:00:00 | 00:00:00 | |
| LZ4TU-5 | 2026-09-02 06:09:45 | 42.66002 | 23.82093 | 73° | 86km/h | 13544m | 5.1m/s | -59.8°C | 13.7% | 0hPa | 0V | 00:00:00 | 00:00:00 | 00:00:00 | |
| LZ4TU-5 | 2026-09-02 06:09:40 | 42.65971 | 23.81949 | 77° | 89km/h | 13518m | 5.8m/s | -59.8°C | 14.2% | 0hPa | 0V | 00:00:00 | 00:00:00 | 00:00:00 | |
| LZ3DJ-16 | 2026-09-02 06:09:36 | 42.65949 | 23.81829 | 75° | 91km/h | 13499m | 6.4m/s | -59.4°C | 14.1% | 0hPa | 0V | 00:00:00 | 00:00:00 | 00:00:00 | |
| LZ3DJ-16 | 2026-09-02 06:09:15 | 42.65829 | 23.81210 | 75° | 93km/h | 13395m | 4.4m/s | -59.8°C | 14.4% | 0hPa | 0V | 00:00:00 | 00:00:00 | 00:00:00 | |
| LZ3DJ-16 | 2026-09-02 06:08:55 | 42.65708 | 23.80526 | 79° | 102km/h | 13289m | 4.3m/s | -59.0°C | 13.8% | 0hPa | 0V | 00:00:00 | 00:00:00 | 00:00:00 | |
| LZ3DJ-16 | 2026-09-02 06:08:34 | 42.65582 | 23.79831 | 76° | 102km/h | 13186m | 5.9m/s | -58.6°C | 14.7% | 0hPa | 0V | 00:00:00 | 00:00:00 | 00:00:00 | |
| LZ3DJ-16 | 2026-09-02 06:08:13 | 42.65440 | 23.79156 | 77° | 93km/h | 13078m | 4.3m/s | -58.3°C | 13.7% | 0hPa | 0V | 00:00:00 | 00:00:00 | 00:00:00 | |
| LZ4TU-5 | 2026-09-02 06:08:08 | 42.65412 | 23.78997 | 77° | 99km/h | 13055m | 6.1m/s | -58.1°C | 13.2% | 0hPa | 0V | 00:00:00 | 00:00:00 | 00:00:00 | |
| LZ3DJ-16 | 2026-09-02 06:07:53 | 42.65330 | 23.78498 | 79° | 97km/h | 12980m | 7.2m/s | -57.7°C | 12.6% | 0hPa | 0V | 00:00:00 | 00:00:00 | 00:00:00 | |
| LZ3DJ-16 | 2026-09-02 06:07:33 | 42.65228 | 23.77843 | 81° | 99km/h | 12872m | 8.0m/s | -56.8°C | 11.9% | 0hPa | 0V | 00:00:00 | 00:00:00 | 00:00:00 | |
| LZ3DJ-16 | 2026-09-02 06:07:13 | 42.65144 | 23.77177 | 81° | 95km/h | 12770m | 6.9m/s | -56.1°C | 12.2% | 0hPa | 0V | 00:00:00 | 00:00:00 | 00:00:00 | |
| LZ3DJ-16 | 2026-09-02 06:06:52 | 42.65047 | 23.76485 | 81° | 100km/h | 12658m | 6.1m/s | -55.7°C | 13.9% | 0hPa | 0V | 00:00:00 | 00:00:00 | 00:00:00 | |
| LZ4TU-5 | 2026-09-02 06:06:41 | 42.64997 | 23.76135 | 80° | 95km/h | 12605m | 5.2m/s | -55.5°C | 14.1% | 0hPa | 0V | 00:00:00 | 00:00:00 | 00:00:00 | |
| LZ3DJ-16 | 2026-09-02 06:06:31 | 42.64953 | 23.75809 | 80° | 93km/h | 12555m | 5.2m/s | -55.0°C | 13.4% | 0hPa | 0V | 00:00:00 | 00:00:00 | 00:00:00 | |
| LZ3DJ-16 | 2026-09-02 06:06:11 | 42.64865 | 23.75159 | 79° | 97km/h | 12441m | 4.8m/s | -54.4°C | 12.9% | 0hPa | 0V | 00:00:00 | 00:00:00 | 00:00:00 | |
| LZ3DJ-16 | 2026-09-02 06:05:51 | 42.64759 | 23.74482 | 76° | 102km/h | 12333m | 5.3m/s | -53.8°C | 14.0% | 0hPa | 0V | 00:00:00 | 00:00:00 | 00:00:00 | |
| LZ3DJ-16 | 2026-09-02 06:05:29 | 42.64616 | 23.73757 | 77° | 104km/h | 12219m | 5.7m/s | -53.4°C | 16.0% | 0hPa | 0V | 00:00:00 | 00:00:00 | 00:00:00 | |
| LZ4TU-5 | 2026-09-02 06:05:13 | 42.64462 | 23.73185 | 72° | 102km/h | 12133m | 4.6m/s | -53.2°C | 18.1% | 0hPa | 0V | 00:00:00 | 00:00:00 | 00:00:00 | |
| LZ3DJ-16 | 2026-09-02 06:05:10 | 42.64438 | 23.73084 | 74° | 102km/h | 12118m | 5.0m/s | -53.2°C | 18.4% | 0hPa | 0V | 00:00:00 | 00:00:00 | 00:00:00 | |
| LZ4TU-5 | 2026-09-02 06:05:09 | 42.64430 | 23.73051 | 72° | 102km/h | 12113m | 5.2m/s | -53.3°C | 18.5% | 0hPa | 0V | 00:00:00 | 00:00:00 | 00:00:00 | |
| LZ3DJ-16 | 2026-09-02 06:04:49 | 42.64256 | 23.72408 | 74° | 100km/h | 12016m | 5.8m/s | -52.9°C | 18.4% | 0hPa | 0V | 00:00:00 | 00:00:00 | 00:00:00 | |
| LZ3DJ-16 | 2026-09-02 06:04:29 | 42.64098 | 23.71749 | 73° | 100km/h | 11918m | 6.2m/s | -52.2°C | 17.3% | 0hPa | 0V | 00:00:00 | 00:00:00 | 00:00:00 | |
| LZ3DJ-16 | 2026-09-02 06:04:09 | 42.63943 | 23.71088 | 71° | 104km/h | 11821m | 3.8m/s | -51.1°C | 15.8% | 0hPa | 0V | 00:00:00 | 00:00:00 | 00:00:00 | |
| LZ4TU-5 | 2026-09-02 06:03:43 | 42.63740 | 23.70242 | 73° | 102km/h | 11696m | 3.9m/s | -50.5°C | 0% | 0hPa | 0V | 00:00:00 | 00:00:00 | 00:00:00 | |
| LZ3DJ-16 | 2026-09-02 06:03:27 | 42.63639 | 23.69712 | 78° | 97km/h | 11619m | 4.9m/s | -49.9°C | 15.2% | 0hPa | 0V | 00:00:00 | 00:00:00 | 00:00:00 | |
| LZ3DJ-16 | 2026-09-02 06:03:06 | 42.63521 | 23.69001 | 77° | 104km/h | 11517m | 5.6m/s | -49.3°C | 15.8% | 0hPa | 0V | 00:00:00 | 00:00:00 | 00:00:00 | |
| LZ3DJ-16 | 2026-09-02 06:02:45 | 42.63416 | 23.68313 | 80° | 99km/h | 11417m | 6.5m/s | -49.0°C | 16.5% | 0hPa | 0V | 00:00:00 | 00:00:00 | 00:00:00 | |
| LZ3DJ-16 | 2026-09-02 06:02:24 | 42.63290 | 23.67569 | 75° | 111km/h | 11293m | 8.4m/s | -48.4°C | 18.0% | 0hPa | 0V | 00:00:00 | 00:00:00 | 00:00:00 | |
| LZ4TU-5 | 2026-09-02 06:02:12 | 42.63194 | 23.67086 | 79° | 111km/h | 11225m | 4.2m/s | -47.7°C | 0% | 0hPa | 0V | 00:00:00 | 00:00:00 | 00:00:00 | |
| LZ4TU-5 | 2026-09-02 06:02:07 | 42.63159 | 23.66896 | 75° | 111km/h | 11201m | 4.4m/s | -47.8°C | 0% | 0hPa | 0V | 00:00:00 | 00:00:00 | 00:00:00 | |
| LZ3DJ-16 | 2026-09-02 06:02:04 | 42.63143 | 23.66823 | 73° | 111km/h | 11192m | 4.9m/s | -47.8°C | 18.6% | 0hPa | 0V | 00:00:00 | 00:00:00 | 00:00:00 | |
| LZ3DJ-16 | 2026-09-02 06:01:44 | 42.62990 | 23.66062 | 79° | 106km/h | 11084m | 3.7m/s | -47.2°C | 31.5% | 0hPa | 0V | 00:00:00 | 00:00:00 | 00:00:00 | |
| LZ3DJ-16 | 2026-09-02 06:01:23 | 42.62870 | 23.65370 | 79° | 100km/h | 10988m | 4.4m/s | -46.8°C | 42.0% | 0hPa | 0V | 00:00:00 | 00:00:00 | 00:00:00 | |
| LZ3DJ-16 | 2026-09-02 06:01:03 | 42.62780 | 23.64684 | 85° | 95km/h | 10877m | 4.6m/s | -45.9°C | 38.8% | 0hPa | 0V | 00:00:00 | 00:00:00 | 00:00:00 | |
| LZ3DJ-16 | 2026-09-02 06:00:42 | 42.62692 | 23.64014 | 83° | 99km/h | 10779m | 4.0m/s | -45.0°C | 35.4% | 0hPa | 0V | 00:00:00 | 00:00:00 | 00:00:00 | |
| LZ4TU-5 | 2026-09-02 06:00:38 | 42.62662 | 23.63847 | 72° | 99km/h | 10756m | 5.5m/s | -45.0°C | 0% | 0hPa | 0V | 00:00:00 | 00:00:00 | 00:00:00 | |
| LZ4TU-5 | 2026-09-02 06:00:33 | 42.62639 | 23.63722 | 81° | 89km/h | 10736m | 4.1m/s | -44.9°C | 0% | 0hPa | 0V | 00:00:00 | 00:00:00 | 00:00:00 | |
| LZ3DJ-16 | 2026-09-02 06:00:22 | 42.62576 | 23.63330 | 81° | 91km/h | 10666m | 6.3m/s | -44.5°C | 33.7% | 0hPa | 0V | 00:00:00 | 00:00:00 | 00:00:00 | |
| LZ3DJ-16 | 2026-09-02 06:00:02 | 42.62478 | 23.62703 | 81° | 97km/h | 10552m | 3.1m/s | -43.5°C | 34.3% | 0hPa | 0V | 00:00:00 | 00:00:00 | 00:00:00 | |
| LZ3DJ-16 | 2026-09-02 05:59:40 | 42.62378 | 23.62017 | 79° | 99km/h | 10435m | 5.1m/s | -42.7°C | 32.2% | 0hPa | 0V | 00:00:00 | 00:00:00 | 00:00:00 | |
| LZ3DJ-16 | 2026-09-02 05:59:20 | 42.62305 | 23.61394 | 92° | 91km/h | 10297m | 10.5m/s | -41.7°C | 33.6% | 0hPa | 0V | 00:00:00 | 00:00:00 | 00:00:00 | |
| LZ4TU-5 | 2026-09-02 05:59:04 | 42.62275 | 23.60933 | 86° | 91km/h | 10193m | 7.8m/s | -40.9°C | 0% | 0hPa | 0V | 00:00:00 | 00:00:00 | 00:00:00 | |
| LZ3DJ-16 | 2026-09-02 05:59:00 | 42.62269 | 23.60781 | 88° | 84km/h | 10164m | 5.9m/s | -40.5°C | 29.4% | 0hPa | 0V | 00:00:00 | 00:00:00 | 00:00:00 | |
| LZ3DJ-16 | 2026-09-02 05:58:39 | 42.62246 | 23.60175 | 88° | 95km/h | 10039m | 5.4m/s | -39.4°C | 27.9% | 0hPa | 0V | 00:00:00 | 00:00:00 | 00:00:00 | |
| LZ3DJ-16 | 2026-09-02 05:58:19 | 42.62217 | 23.59530 | 87° | 89km/h | 9905m | 7.3m/s | -38.1°C | 26.9% | 0hPa | 0V | 00:00:00 | 00:00:00 | 00:00:00 | |
| LZ3DJ-16 | 2026-09-02 05:57:58 | 42.62172 | 23.58878 | 84° | 84km/h | 9774m | 4.4m/s | -37.0°C | 16.4% | 0hPa | 0V | 00:00:00 | 00:00:00 | 00:00:00 | |
| LZ4TU-5 | 2026-09-02 05:57:45 | 42.62156 | 23.58479 | 93° | 93km/h | 9698m | 8.4m/s | -36.5°C | 0% | 0hPa | 0V | 00:00:00 | 00:00:00 | 00:00:00 | |
| LZ4TU-5 | 2026-09-02 05:57:40 | 42.62152 | 23.58347 | 87° | 99km/h | 9678m | 6.5m/s | -36.3°C | 0% | 0hPa | 0V | 00:00:00 | 00:00:00 | 00:00:00 | |
| LZ3DJ-16 | 2026-09-02 05:57:38 | 42.62147 | 23.58254 | 86° | 84km/h | 9662m | 3.9m/s | -36.3°C | 15.3% | 0hPa | 0V | 00:00:00 | 00:00:00 | 00:00:00 | |
| LZ3DJ-16 | 2026-09-02 05:57:18 | 42.62112 | 23.57656 | 87° | 88km/h | 9553m | 6.0m/s | -35.5°C | 13.7% | 0hPa | 0V | 00:00:00 | 00:00:00 | 00:00:00 | |
| LZ3DJ-16 | 2026-09-02 05:56:58 | 42.62067 | 23.57076 | 81° | 82km/h | 9448m | 5.5m/s | -34.8°C | 13.4% | 0hPa | 0V | 00:00:00 | 00:00:00 | 00:00:00 | |
| LZ3DJ-16 | 2026-09-02 05:56:37 | 42.61998 | 23.56492 | 84° | 82km/h | 9317m | 5.0m/s | -33.8°C | 12.1% | 0hPa | 0V | 00:00:00 | 00:00:00 | 00:00:00 | |
| LZ4TU-5 | 2026-09-02 05:56:18 | 42.61968 | 23.55948 | 87° | 78km/h | 9195m | 2.0m/s | -33.3°C | 0% | 0hPa | 0V | 00:00:00 | 00:00:00 | 00:00:00 | |
| LZ3DJ-16 | 2026-09-02 05:56:17 | 42.61967 | 23.55922 | 88° | 77km/h | 9189m | 8.6m/s | -33.3°C | 13.5% | 0hPa | 0V | 00:00:00 | 00:00:00 | 00:00:00 | |
| LZ3DJ-16 | 2026-09-02 05:55:57 | 42.61956 | 23.55409 | 90° | 77km/h | 9059m | 4.7m/s | -32.4°C | 13.8% | 0hPa | 0V | 00:00:00 | 00:00:00 | 00:00:00 | |
| LZ3DJ-16 | 2026-09-02 05:55:36 | 42.61954 | 23.54881 | 86° | 71km/h | 8931m | 7.9m/s | -31.6°C | 13.4% | 0hPa | 0V | 00:00:00 | 00:00:00 | 00:00:00 | |
| LZ3DJ-16 | 2026-09-02 05:55:15 | 42.61952 | 23.54366 | 93° | 71km/h | 8799m | 5.0m/s | -30.8°C | 14.2% | 0hPa | 0V | 00:00:00 | 00:00:00 | 00:00:00 | |
| LZ3DJ-16 | 2026-09-02 05:54:54 | 42.61948 | 23.53846 | 88° | 77km/h | 8660m | 8.1m/s | -29.9°C | 13.2% | 0hPa | 0V | 00:00:00 | 00:00:00 | 00:00:00 | |
| LZ4TU-5 | 2026-09-02 05:54:42 | 42.61951 | 23.53540 | 92° | 75km/h | 8582m | 7.2m/s | -29.2°C | 0% | 0hPa | 0V | 00:00:00 | 00:00:00 | 00:00:00 | |
| LZ4TU-5 | 2026-09-02 05:54:37 | 42.61957 | 23.53417 | 95° | 66km/h | 8551m | 4.4m/s | -28.9°C | 0% | 0hPa | 0V | 00:00:00 | 00:00:00 | 00:00:00 | |
| LZ3DJ-16 | 2026-09-02 05:54:33 | 42.61960 | 23.53351 | 94° | 69km/h | 8537m | 3.3m/s | -28.8°C | 13.2% | 0hPa | 0V | 00:00:00 | 00:00:00 | 00:00:00 | |
| LZ3DJ-16 | 2026-09-02 05:54:13 | 42.61978 | 23.52835 | 98° | 69km/h | 8409m | 4.9m/s | -27.7°C | 12.7% | 0hPa | 0V | 00:00:00 | 00:00:00 | 00:00:00 | |
| LZ3DJ-16 | 2026-09-02 05:53:53 | 42.62020 | 23.52361 | 100° | 68km/h | 8284m | 10.7m/s | -26.7°C | 13.6% | 0hPa | 0V | 00:00:00 | 00:00:00 | 00:00:00 | |
| LZ3DJ-16 | 2026-09-02 05:53:32 | 42.62071 | 23.51914 | 95° | 73km/h | 8153m | 7.2m/s | -25.8°C | 15.5% | 0hPa | 0V | 00:00:00 | 00:00:00 | 00:00:00 | |
| LZ3DJ-16 | 2026-09-02 05:53:12 | 42.62104 | 23.51470 | 105° | 64km/h | 8028m | 3.4m/s | -25.1°C | 17.8% | 0hPa | 0V | 00:00:00 | 00:00:00 | 00:00:00 | |
| LZ4TU-5 | 2026-09-02 05:53:00 | 42.62144 | 23.51211 | 109° | 58km/h | 7960m | 6.3m/s | -24.5°C | 0% | 0hPa | 0V | 00:00:00 | 00:00:00 | 00:00:00 | |
| LZ3DJ-16 | 2026-09-02 05:52:51 | 42.62178 | 23.51036 | 108° | 66km/h | 7905m | 9.2m/s | -24.0°C | 17.6% | 0hPa | 0V | 00:00:00 | 00:00:00 | 00:00:00 | |
| LZ3DJ-16 | 2026-09-02 05:52:31 | 42.62247 | 23.50619 | 104° | 60km/h | 7786m | 5.6m/s | -23.0°C | 19.9% | 0hPa | 0V | 00:00:00 | 00:00:00 | 00:00:00 | |
| LZ3DJ-16 | 2026-09-02 05:52:10 | 42.62343 | 23.50180 | 106° | 66km/h | 7657m | 2.0m/s | -21.9°C | 19.9% | 0hPa | 0V | 00:00:00 | 00:00:00 | 00:00:00 | |
| LZ3DJ-16 | 2026-09-02 05:51:50 | 42.62437 | 23.49802 | 106° | 58km/h | 7544m | 5.3m/s | -20.9°C | 16.0% | 0hPa | 0V | 00:00:00 | 00:00:00 | 00:00:00 | |
| LZ3DJ-16 | 2026-09-02 05:51:29 | 42.62525 | 23.49388 | 106° | 64km/h | 7426m | 3.3m/s | -19.8°C | 12.9% | 0hPa | 0V | 00:00:00 | 00:00:00 | 00:00:00 | |
| LZ4TU-5 | 2026-09-02 05:51:25 | 42.62543 | 23.49304 | 110° | 60km/h | 7403m | 6.7m/s | -19.6°C | 0% | 0hPa | 0V | 00:00:00 | 00:00:00 | 00:00:00 | |
| LZ3DJ-16 | 2026-09-02 05:51:08 | 42.62626 | 23.48976 | 114° | 57km/h | 7302m | 6.4m/s | -19.6°C | 16.7% | 0hPa | 0V | 00:00:00 | 00:00:00 | 00:00:00 | |
| LZ3DJ-16 | 2026-09-02 05:50:48 | 42.62736 | 23.48606 | 112° | 64km/h | 7204m | 5.5m/s | -19.0°C | 21.4% | 0hPa | 0V | 00:00:00 | 00:00:00 | 00:00:00 | |
| LZ3DJ-16 | 2026-09-02 05:50:27 | 42.62840 | 23.48203 | 111° | 55km/h | 7079m | 1.8m/s | -17.8°C | 19.2% | 0hPa | 0V | 00:00:00 | 00:00:00 | 00:00:00 | |
| LZ3DJ-16 | 2026-09-02 05:50:06 | 42.62955 | 23.47836 | 116° | 58km/h | 6940m | 5.8m/s | -16.6°C | 17.2% | 0hPa | 0V | 00:00:00 | 00:00:00 | 00:00:00 | |
| LZ3DJ-16 | 2026-09-02 05:49:46 | 42.63047 | 23.47505 | 120° | 47km/h | 6827m | 4.8m/s | -15.6°C | 16.7% | 0hPa | 0V | 00:00:00 | 00:00:00 | 00:00:00 | |
| LZ3DJ-16 | 2026-09-02 05:49:25 | 42.63158 | 23.47149 | 115° | 47km/h | 6693m | 3.9m/s | -14.6°C | 14.3% | 0hPa | 0V | 00:00:00 | 00:00:00 | 00:00:00 | |
| LZ3DJ-16 | 2026-09-02 05:49:05 | 42.63248 | 23.46841 | 114° | 47km/h | 6567m | 7.9m/s | -13.6°C | 16.2% | 0hPa | 0V | 00:00:00 | 00:00:00 | 00:00:00 | |
| LZ4TU-5 | 2026-09-02 05:49:04 | 42.63252 | 23.46825 | 112° | 47km/h | 6560m | 5.8m/s | -13.5°C | 0% | 0hPa | 0V | 00:00:00 | 00:00:00 | 00:00:00 | |
| LZ4TU-5 | 2026-09-02 05:48:59 | 42.63270 | 23.46769 | 115° | 44km/h | 6536m | 6.5m/s | -13.3°C | 0% | 0hPa | 0V | 00:00:00 | 00:00:00 | 00:00:00 | |
| LZ3DJ-16 | 2026-09-02 05:48:44 | 42.63342 | 23.46533 | 113° | 47km/h | 6440m | 6.9m/s | -12.5°C | 16.7% | 0hPa | 0V | 00:00:00 | 00:00:00 | 00:00:00 | |
| LZ3DJ-16 | 2026-09-02 05:48:24 | 42.63460 | 23.46198 | 120° | 51km/h | 6315m | 3.3m/s | -11.3°C | 14.4% | 0hPa | 0V | 00:00:00 | 00:00:00 | 00:00:00 | |
| LZ3DJ-16 | 2026-09-02 05:48:04 | 42.63554 | 23.45850 | 117° | 47km/h | 6182m | 5.0m/s | -10.9°C | 17.6% | 0hPa | 0V | 00:00:00 | 00:00:00 | 00:00:00 | |
| LZ3DJ-16 | 2026-09-02 05:47:23 | 42.63700 | 23.45259 | 114° | 53km/h | 5912m | 6.1m/s | -9.5°C | 28.9% | 0hPa | 0V | 00:00:00 | 00:00:00 | 00:00:00 | |
| LZ3DJ-16 | 2026-09-02 05:47:02 | 42.63771 | 23.44951 | 101° | 46km/h | 5773m | 8.8m/s | -8.6°C | 29.8% | 0hPa | 0V | 00:00:00 | 00:00:00 | 00:00:00 | |
| LZ4TU-5 | 2026-09-02 05:46:58 | 42.63786 | 23.44896 | 120° | 42km/h | 5747m | 5.4m/s | -8.4°C | 0% | 0hPa | 0V | 00:00:00 | 00:00:00 | 00:00:00 | |
| LZ3DJ-16 | 2026-09-02 05:46:41 | 42.63846 | 23.44642 | 115° | 31km/h | 5640m | 6.3m/s | -7.5°C | 31.5% | 0hPa | 0V | 00:00:00 | 00:00:00 | 00:00:00 | |
| LZ3DJ-16 | 2026-09-02 05:46:20 | 42.63927 | 23.44354 | 106° | 40km/h | 5510m | 4.1m/s | -6.2°C | 29.1% | 0hPa | 0V | 00:00:00 | 00:00:00 | 00:00:00 | |
| LZ3DJ-16 | 2026-09-02 05:45:59 | 42.63992 | 23.44029 | 109° | 44km/h | 5375m | 9.9m/s | -5.2°C | 24.7% | 0hPa | 0V | 00:00:00 | 00:00:00 | 00:00:00 | |
| LZ3DJ-16 | 2026-09-02 05:45:39 | 42.64071 | 23.43742 | 121° | 40km/h | 5250m | 6.8m/s | -4.2°C | 4.1% | 0hPa | 0V | 00:00:00 | 00:00:00 | 00:00:00 | |
| LZ3DJ-16 | 2026-09-02 05:45:18 | 42.64123 | 23.43483 | 96° | 35km/h | 5111m | 7.5m/s | -3.2°C | 2.3% | 0hPa | 0V | 00:00:00 | 00:00:00 | 00:00:00 | |
| LZ4TU-5 | 2026-09-02 05:45:02 | 42.64162 | 23.43287 | 110° | 46km/h | 5012m | 5.1m/s | -2.5°C | 0% | 0hPa | 0V | 00:00:00 | 00:00:00 | 00:00:00 | |
| LZ3DJ-16 | 2026-09-02 05:44:58 | 42.64165 | 23.43231 | 84° | 37km/h | 4986m | 6.4m/s | -2.4°C | 2.0% | 0hPa | 0V | 00:00:00 | 00:00:00 | 00:00:00 | |
| LZ3DJ-16 | 2026-09-02 05:44:37 | 42.64232 | 23.42975 | 106° | 33km/h | 4859m | 5.4m/s | -2.0°C | 4.7% | 0hPa | 0V | 00:00:00 | 00:00:00 | 00:00:00 | |
| LZ3DJ-16 | 2026-09-02 05:44:17 | 42.64295 | 23.42727 | 113° | 42km/h | 4738m | 7.7m/s | -1.6°C | 6.0% | 0hPa | 0V | 00:00:00 | 00:00:00 | 00:00:00 | |
| LZ3DJ-16 | 2026-09-02 05:43:56 | 42.64398 | 23.42454 | 116° | 42km/h | 4617m | 5.4m/s | -1.1°C | 7.4% | 0hPa | 0V | 00:00:00 | 00:00:00 | 00:00:00 | |
| LZ3DJ-16 | 2026-09-02 05:43:35 | 42.64449 | 23.42234 | 103° | 37km/h | 4505m | 7.4m/s | -0.4°C | 4.7% | 0hPa | 0V | 00:00:00 | 00:00:00 | 00:00:00 | |
| LZ4TU-5 | 2026-09-02 05:43:31 | 42.64458 | 23.42192 | 113° | 29km/h | 4477m | 7.4m/s | -0.3°C | 0% | 0hPa | 0V | 00:00:00 | 00:00:00 | 00:00:00 | |
| LZ4TU-5 | 2026-09-02 05:43:27 | 42.64484 | 23.42135 | 126° | 44km/h | 4450m | 7.9m/s | -0.3°C | 0% | 0hPa | 0V | 00:00:00 | 00:00:00 | 00:00:00 | |
| LZ3DJ-16 | 2026-09-02 05:43:15 | 42.64533 | 23.41963 | 116° | 51km/h | 4378m | 10.3m/s | -0.7°C | 16.9% | 0hPa | 0V | 00:00:00 | 00:00:00 | 00:00:00 | |
| LZ3DJ-16 | 2026-09-02 05:42:55 | 42.64575 | 23.41647 | 108° | 44km/h | 4252m | 2.9m/s | -0.7°C | 32.3% | 0hPa | 0V | 00:00:00 | 00:00:00 | 00:00:00 | |
| LZ3DJ-16 | 2026-09-02 05:42:34 | 42.64595 | 23.41361 | 87° | 40km/h | 4122m | 6.5m/s | -0.2°C | 31.0% | 0hPa | 0V | 00:00:00 | 00:00:00 | 00:00:00 | |
| LZ3DJ-16 | 2026-09-02 05:42:13 | 42.64629 | 23.41110 | 91° | 38km/h | 3994m | 6.4m/s | -0.5°C | 93.9% | 0hPa | 0V | 00:00:00 | 00:00:00 | 00:00:00 | |
| LZ4TU-5 | 2026-09-02 05:41:59 | 42.64632 | 23.40912 | 95° | 33km/h | 3908m | 8.2m/s | 0.2°C | 0% | 0hPa | 0V | 00:00:00 | 00:00:00 | 00:00:00 | |
| LZ4TU-5 | 2026-09-02 05:41:54 | 42.64645 | 23.40856 | 103° | 40km/h | 3875m | 6.1m/s | 0°C | 0% | 0hPa | 0V | 00:00:00 | 00:00:00 | 00:00:00 | |
| LZ3DJ-16 | 2026-09-02 05:41:53 | 42.64647 | 23.40842 | 96° | 40km/h | 3869m | 6.6m/s | 0.5°C | 91.1% | 0hPa | 0V | 00:00:00 | 00:00:00 | 00:00:00 | |
| LZ3DJ-16 | 2026-09-02 05:41:31 | 42.64651 | 23.40562 | 83° | 42km/h | 3753m | 5.7m/s | 1.5°C | 89.3% | 0hPa | 0V | 00:00:00 | 00:00:00 | 00:00:00 | |
| LZ3DJ-16 | 2026-09-02 05:41:11 | 42.64675 | 23.40302 | 101° | 33km/h | 3620m | 6.2m/s | 2.7°C | 89.9% | 0hPa | 0V | 00:00:00 | 00:00:00 | 00:00:00 | |
| LZ3DJ-16 | 2026-09-02 05:40:50 | 42.64705 | 23.40024 | 104° | 46km/h | 3482m | 7.0m/s | 3.5°C | 90.0% | 0hPa | 0V | 00:00:00 | 00:00:00 | 00:00:00 | |
| LZ3DJ-16 | 2026-09-02 05:40:29 | 42.64759 | 23.39759 | 105° | 35km/h | 3345m | 8.7m/s | 4.6°C | 84.0% | 0hPa | 0V | 00:00:00 | 00:00:00 | 00:00:00 | |
| LZ4TU-5 | 2026-09-02 05:40:25 | 42.64770 | 23.39715 | 116° | 35km/h | 3319m | 8.0m/s | 0°C | 0% | 0hPa | 0V | 00:00:00 | 00:00:00 | 00:00:00 | |
| LZ4TU-5 | 2026-09-02 05:40:20 | 42.64783 | 23.39670 | 117° | 40km/h | 3288m | 5.3m/s | 0°C | 0% | 0hPa | 0V | 00:00:00 | 00:00:00 | 00:00:00 | |
| LZ3DJ-16 | 2026-09-02 05:40:08 | 42.64822 | 23.39533 | 136° | 31km/h | 3206m | 7.4m/s | 5.8°C | 77.5% | 0hPa | 0V | 00:00:00 | 00:00:00 | 00:00:00 | |
| LZ3DJ-16 | 2026-09-02 05:39:48 | 42.64907 | 23.39352 | 120° | 33km/h | 3066m | 7.9m/s | 7.2°C | 65.0% | 0hPa | 0V | 00:00:00 | 00:00:00 | 00:00:00 | |
| LZ3DJ-16 | 2026-09-02 05:39:28 | 42.64999 | 23.39213 | 143° | 20km/h | 2931m | 7.5m/s | 8.2°C | 32.6% | 0hPa | 0V | 00:00:00 | 00:00:00 | 00:00:00 | |
| LZ3DJ-16 | 2026-09-02 05:39:06 | 42.65077 | 23.39116 | 167° | 15km/h | 2800m | 8.5m/s | 9.3°C | 37.4% | 0hPa | 0V | 00:00:00 | 00:00:00 | 00:00:00 | |
| LZ4TU-5 | 2026-09-02 05:39:03 | 42.65086 | 23.39107 | 123° | 15km/h | 2783m | 4.0m/s | 0°C | 0% | 0hPa | 0V | 00:00:00 | 00:00:00 | 00:00:00 | |
| LZ4TU-5 | 2026-09-02 05:38:58 | 42.65093 | 23.39097 | 150° | 9km/h | 2754m | 6.9m/s | 0°C | 0% | 0hPa | 0V | 00:00:00 | 00:00:00 | 00:00:00 | |
| LZ3DJ-16 | 2026-09-02 05:38:45 | 42.65121 | 23.39026 | 109° | 16km/h | 2666m | 5.7m/s | 10.1°C | 45.0% | 0hPa | 0V | 00:00:00 | 00:00:00 | 00:00:00 | |
| LZ3DJ-16 | 2026-09-02 05:38:25 | 42.65144 | 23.38913 | 112° | 22km/h | 2545m | 4.9m/s | 10.5°C | 61.6% | 0hPa | 0V | 00:00:00 | 00:00:00 | 00:00:00 | |
| LZ3DJ-16 | 2026-09-02 05:38:04 | 42.65179 | 23.38809 | 114° | 20km/h | 2420m | 6.6m/s | 11.1°C | 73.0% | 0hPa | 0V | 00:00:00 | 00:00:00 | 00:00:00 | |
| LZ3DJ-16 | 2026-09-02 05:37:44 | 42.65228 | 23.38703 | 94° | 20km/h | 2305m | 6.6m/s | 11.7°C | 81.8% | 0hPa | 0V | 00:00:00 | 00:00:00 | 00:00:00 | |
| LZ4TU-5 | 2026-09-02 05:37:35 | 42.65228 | 23.38675 | 88° | 11km/h | 2253m | 7.4m/s | 0°C | 0% | 0hPa | 0V | 00:00:00 | 00:00:00 | 00:00:00 | |
| LZ4TU-5 | 2026-09-02 05:37:30 | 42.65228 | 23.38658 | 77° | 11km/h | 2228m | 3.6m/s | 0°C | 0% | 0hPa | 0V | 00:00:00 | 00:00:00 | 00:00:00 | |
| LZ3DJ-16 | 2026-09-02 05:37:24 | 42.65224 | 23.38624 | 73° | 9km/h | 2181m | 4.8m/s | 12.6°C | 84.3% | 0hPa | 0V | 00:00:00 | 00:00:00 | 00:00:00 | |
| LZ3DJ-16 | 2026-09-02 05:37:03 | 42.65221 | 23.38566 | 61° | 7km/h | 2057m | 5.2m/s | 13.1°C | 80.7% | 0hPa | 0V | 00:00:00 | 00:00:00 | 00:00:00 | |
| LZ3DJ-16 | 2026-09-02 05:36:42 | 42.65195 | 23.38532 | 361° | 5km/h | 1936m | 8.1m/s | 13.6°C | 85.9% | 0hPa | 0V | 00:00:00 | 00:00:00 | 00:00:00 | |
| LZ3DJ-16 | 2026-09-02 05:36:22 | 42.65181 | 23.38543 | 304° | 13km/h | 1820m | 4.8m/s | 14.7°C | 81.2% | 0hPa | 0V | 00:00:00 | 00:00:00 | 00:00:00 | |
| LZ4TU-5 | 2026-09-02 05:36:15 | 42.65181 | 23.38563 | 310° | 7km/h | 1777m | 5.4m/s | 0°C | 0% | 0hPa | 0V | 00:00:00 | 00:00:00 | 00:00:00 | |
| LZ4TU-5 | 2026-09-02 05:36:10 | 42.65179 | 23.38568 | 254° | 7km/h | 1756m | 5.8m/s | 0°C | 0% | 0hPa | 0V | 00:00:00 | 00:00:00 | 00:00:00 | |
| LZ3DJ-16 | 2026-09-02 05:36:02 | 42.65181 | 23.38584 | 0° | 0km/h | 1705m | 5.9m/s | 15.3°C | 79.3% | 0hPa | 0V | 00:00:00 | 00:00:00 | 00:00:00 | |
| LZ3DJ-16 | 2026-09-02 05:35:40 | 42.65201 | 23.38601 | 196° | 7km/h | 1581m | 5.7m/s | 16.4°C | 74.8% | 0hPa | 0V | 00:00:00 | 00:00:00 | 00:00:00 | |
| LZ3DJ-16 | 2026-09-02 05:35:19 | 42.65230 | 23.38589 | 196° | 15km/h | 1457m | 5.1m/s | 17.2°C | 73.9% | 0hPa | 0V | 00:00:00 | 00:00:00 | 00:00:00 | |
| LZ3DJ-16 | 2026-09-02 05:34:59 | 42.65260 | 23.38593 | 193° | 5km/h | 1341m | 5.2m/s | 17.9°C | 0% | 0hPa | 0V | 00:00:00 | 00:00:00 | 00:00:00 | |
| LZ3DJ-16 | 2026-09-02 05:34:38 | 42.65268 | 23.38559 | 123° | 15km/h | 1221m | 7.0m/s | 18.2°C | 0% | 0hPa | 0V | 00:00:00 | 00:00:00 | 00:00:00 | |
| LZ3DJ-16 | 2026-09-02 05:34:17 | 42.65279 | 23.38492 | 122° | 22km/h | 1103m | 4.7m/s | 18.6°C | 0% | 0hPa | 0V | 00:00:00 | 00:00:00 | 00:00:00 | |
| LZ3DJ-16 | 2026-09-02 05:33:57 | 42.65322 | 23.38433 | 107° | 18km/h | 992m | 4.3m/s | 0°C | 0% | 0hPa | 0V | 00:00:00 | 00:00:00 | 00:00:00 | |
| LZ3DJ-16 | 2026-09-02 05:33:37 | 42.65356 | 23.38370 | 38° | 18km/h | 876m | 6.0m/s | 0°C | 0% | 0hPa | 0V | 00:00:00 | 00:00:00 | 00:00:00 |